Silica, Minnesota
Current Conditions -  °F | °C
As of 12:53 PM on Friday 31 Oct 2014 (Local Time) from KHIB Reporting Station
Clear Clear  
Wind Chill: 34°   Ceiling: Unl
Heat Index: 34°   Visibility: 10mi
Dew Point: 17°   Wind: 3mph
Humidity: 50%   Direction: NA
Pressure: 30.53"   Gusts: NA
Location:  47.4158°N, 93.0053°W
Report Text: KHIB 311753Z AUTO VRB03KT 10SM CLR 01/M08 A3053 RMK AO2 SLP360 T00111083 10011 21072 58007
Loading
Personal Weather Stations






























Interactive Weather Map
Tropical Storm Tracking
New forecast layout! Learn more

10-Day Weather Forecast

Advertisements
Track Severe Weather on mobile